LiveATC.Net - Listen to live air traffic control over the Internet!


ICAO: KMOB  IATA: MOB   Airport: Mobile Regional Airport
City: Mobile   State/Province: Alabama
Country: United States   Continent: North America
KMOB METAR Weather: KMOB 181056Z 01005KT 7SM FEW035 SCT080 BKN140 13/11 A2993 RMK AO2 SLP134 T01280111 $
KMOB Flight Activity (FlightAware)
KMOB Airport Info   (iFlightPlanner)
KMOB VFR Sectional Chart   (iFlightPlanner) 
KMOB IFR Low Chart   (iFlightPlanner) 

KMOB Gnd/Twr/App
Feed Status: DOWN
Last heard on: 2021-04-17 15:57:22 (0 days 19 hours 46 minutes ago)
Archive Access: KMOB Gnd/Twr/App
FacilityFrequency
Mobile Approach/Departure North (320-139) 118.500
Mobile Approach/Departure South (140-319)121.000
Mobile Clearance Delivery119.850
Mobile Ground121.900
Mobile Tower118.300

NOTICE

Unauthorized use prohibited. See LiveATC.net Terms of Service


Airport/ARTCC Code
Frequency Search
(e.g., 124.400, 128.75)
Site-wide search
 


Browse Feeds
Top 50 Feeds
HF Oceanic Feeds
Coverage Map
Bad Weather Areas

LiveATC FAQ
Offer LiveATC feed
Contact LiveATC.net
Press Inquiries

LiveATC on iPhone
LiveATC on Android

Windows Phone
Windows 8/10

LiveATC Mobile
(Mobile browser)

ATC Audio Archives
Interesting Recordings

LiveATC Forums


Home Page
About LiveATC.net
Make a Donation
Terms of Use
Privacy Policy

Canadian Air Freqs

AIRMETs/SIGMETs

FAA Airport Status
Nat'l Airspace Status
Arrival Demand Charts


Server Software By:
Icecast.org
Liquidsoap